Time;durP1;ratioP1;P1;durP2;ratioP2;P2;SDS_P1;SDS_P2;PMS_P1;PMS_P2;Temp;Humidity;BMP_temperature;BMP_pressure;BME280_temperature;BME280_humidity;BME280_pressure;Samples;Min_cycle;Max_cycle;Signal;HPM_P1;HPM_P2
2022/09/03 00:00:48;;;;;;;7.70;6.80;;;14.40;99.90;;;;;;4982600;28;20427;-61
2022/09/03 00:03:23;;;;;;;8.67;5.87;;;14.40;99.90;;;;;;5061042;28;21562;-61
2022/09/03 00:06:18;;;;;;;6.73;5.97;;;14.40;99.90;;;;;;5060282;28;20460;-61
2022/09/03 00:09:02;;;;;;;6.27;5.67;;;14.40;99.90;;;;;;5050072;28;20437;-61
2022/09/03 00:11:38;;;;;;;9.30;6.93;;;14.40;99.90;;;;;;5063029;28;20540;-61
2022/09/03 00:14:09;;;;;;;7.00;5.50;;;14.40;99.90;;;;;;5063577;28;20550;-61
2022/09/03 00:16:59;;;;;;;6.60;5.80;;;14.40;99.90;;;;;;5070558;28;20412;-61
2022/09/03 00:19:32;;;;;;;8.23;5.27;;;14.40;99.90;;;;;;5067403;28;20464;-61
2022/09/03 00:22:02;;;;;;;9.03;5.70;;;14.40;99.90;;;;;;5066108;28;20867;-61
2022/09/03 00:24:34;;;;;;;11.40;5.73;;;14.40;99.90;;;;;;5061205;28;20483;-61
2022/09/03 00:27:05;;;;;;;6.90;5.70;;;14.40;99.90;;;;;;5055265;28;20782;-62
2022/09/03 00:29:51;;;;;;;11.67;5.70;;;14.40;99.90;;;;;;5066299;28;20467;-61
2022/09/03 00:32:26;;;;;;;6.90;6.10;;;14.40;99.90;;;;;;5061692;28;20865;-61
2022/09/03 00:35:01;;;;;;;7.10;6.30;;;14.50;99.90;;;;;;5064495;28;20458;-61
2022/09/03 00:37:27;;;;;;;7.03;6.30;;;14.50;99.90;;;;;;5062028;28;20440;-61
2022/09/03 00:39:56;;;;;;;8.20;6.40;;;14.50;99.90;;;;;;5065851;28;20428;-61
2022/09/03 00:42:25;;;;;;;7.30;6.27;;;14.50;99.90;;;;;;5064501;28;20449;-61
2022/09/03 00:44:59;;;;;;;7.83;6.50;;;14.50;99.90;;;;;;5065866;28;20472;-61
2022/09/03 00:47:55;;;;;;;8.73;6.50;;;14.50;99.90;;;;;;5064907;28;20481;-61
2022/09/03 00:50:48;;;;;;;8.80;6.93;;;14.50;99.90;;;;;;5048071;28;20429;-61
2022/09/03 00:53:23;;;;;;;8.83;6.57;;;14.50;99.90;;;;;;5063759;28;20491;-62
2022/09/03 00:55:57;;;;;;;8.30;6.80;;;14.50;99.90;;;;;;5048721;28;20436;-61
2022/09/03 00:58:29;;;;;;;9.30;6.67;;;14.50;99.90;;;;;;5045485;28;20465;-60
2022/09/03 01:00:55;;;;;;;10.57;6.10;;;14.50;99.90;;;;;;5063626;28;20488;-61
2022/09/03 01:03:53;;;;;;;9.10;7.00;;;14.50;99.90;;;;;;5063102;28;20495;-61
2022/09/03 01:06:39;;;;;;;9.13;6.57;;;14.50;99.90;;;;;;5047388;28;20965;-60
2022/09/03 01:09:28;;;;;;;9.90;7.07;;;14.50;99.90;;;;;;5020150;28;20433;-60
2022/09/03 01:12:30;;;;;;;8.07;7.10;;;14.50;99.90;;;;;;5055649;28;20538;-61
2022/09/03 01:15:39;;;;;;;6.33;5.13;;;14.50;99.90;;;;;;5058340;28;20459;-60
2022/09/03 01:18:14;;;;;;;9.50;6.07;;;14.50;99.90;;;;;;5064227;28;20479;-61
2022/09/03 01:21:21;;;;;;;6.97;5.40;;;14.40;99.90;;;;;;5061267;28;20432;-61
2022/09/03 01:24:06;;;;;;;9.47;5.90;;;14.40;99.90;;;;;;5064588;28;20443;-61
2022/09/03 01:26:49;;;;;;;6.73;6.13;;;14.40;99.90;;;;;;5064629;28;20440;-61
2022/09/03 01:29:21;;;;;;;8.40;6.20;;;14.40;99.90;;;;;;5064892;28;20427;-61
2022/09/03 01:31:56;;;;;;;7.27;6.57;;;14.40;99.90;;;;;;5061999;28;20461;-61
2022/09/03 01:34:31;;;;;;;7.47;6.77;;;14.40;99.90;;;;;;5064864;28;20488;-61
2022/09/03 01:37:37;;;;;;;8.03;6.40;;;14.40;99.90;;;;;;5063005;28;20420;-61
2022/09/03 01:40:22;;;;;;;7.43;6.30;;;14.40;99.90;;;;;;5043059;28;20505;-61
2022/09/03 01:43:19;;;;;;;6.67;5.97;;;14.40;99.90;;;;;;5065183;28;21000;-61
2022/09/03 01:45:58;;;;;;;6.47;5.87;;;14.40;99.90;;;;;;5056164;28;20476;-61
2022/09/03 01:48:42;;;;;;;6.60;6.00;;;14.40;99.90;;;;;;5062848;28;20945;-61
2022/09/03 01:51:12;;;;;;;6.77;6.07;;;14.40;99.90;;;;;;5060238;28;20573;-60
2022/09/03 01:53:56;;;;;;;9.20;6.27;;;14.40;99.90;;;;;;5061539;28;21335;-61
2022/09/03 01:56:46;;;;;;;7.47;6.70;;;14.40;99.90;;;;;;5065483;28;20433;-61
2022/09/03 01:59:32;;;;;;;7.63;5.63;;;14.40;99.90;;;;;;5060495;28;20439;-61
2022/09/03 02:01:57;;;;;;;7.63;5.57;;;14.40;99.90;;;;;;5039777;28;20479;-60
2022/09/03 02:04:25;;;;;;;9.60;5.80;;;14.40;99.90;;;;;;5059136;28;20437;-60
2022/09/03 02:06:52;;;;;;;8.67;5.40;;;14.30;99.90;;;;;;5058493;28;20173;-60
2022/09/03 02:09:19;;;;;;;6.27;5.63;;;14.30;99.90;;;;;;5064738;28;20429;-60
2022/09/03 02:11:52;;;;;;;6.40;5.80;;;14.30;99.90;;;;;;5063282;28;20448;-60
2022/09/03 02:14:18;;;;;;;7.40;6.70;;;14.30;99.90;;;;;;5064814;28;20437;-61
2022/09/03 02:16:45;;;;;;;7.30;6.50;;;14.30;99.90;;;;;;5059939;28;20439;-60
2022/09/03 02:19:14;;;;;;;7.33;6.63;;;14.30;99.90;;;;;;5066483;28;20421;-61
2022/09/03 02:21:49;;;;;;;6.40;5.80;;;14.20;99.90;;;;;;5063230;28;20477;-61
2022/09/03 02:24:15;;;;;;;7.87;6.33;;;14.20;99.90;;;;;;5060590;28;20985;-61
2022/09/03 02:26:40;;;;;;;6.80;6.10;;;14.20;99.90;;;;;;5072858;28;20428;-60
2022/09/03 02:29:06;;;;;;;12.30;6.37;;;14.20;99.90;;;;;;5068244;28;20696;-60
2022/09/03 02:31:32;;;;;;;7.50;6.07;;;14.20;99.90;;;;;;5067009;28;20194;-60
2022/09/03 02:33:58;;;;;;;7.40;6.10;;;14.10;99.90;;;;;;5064923;28;20664;-60
2022/09/03 02:36:42;;;;;;;7.87;6.33;;;14.20;99.90;;;;;;5071232;28;20686;-60
2022/09/03 02:39:08;;;;;;;9.90;6.50;;;14.20;99.90;;;;;;5058996;28;20261;-60
2022/09/03 02:41:34;;;;;;;6.47;5.87;;;14.20;99.90;;;;;;5068998;28;20455;-60
2022/09/03 02:44:25;;;;;;;6.90;5.80;;;14.20;99.90;;;;;;5074035;28;21003;-61
2022/09/03 02:46:58;;;;;;;6.00;5.40;;;14.10;99.90;;;;;;5070022;28;20175;-60
2022/09/03 02:49:23;;;;;;;6.20;5.20;;;14.10;99.90;;;;;;5053586;28;20946;-61
2022/09/03 02:51:49;;;;;;;6.27;5.60;;;14.10;99.90;;;;;;5062849;28;20499;-61
2022/09/03 02:54:15;;;;;;;10.20;6.50;;;14.10;99.90;;;;;;5068015;28;20183;-61
2022/09/03 02:56:41;;;;;;;7.60;5.70;;;14.10;99.90;;;;;;5068917;28;20652;-61
2022/09/03 02:59:08;;;;;;;6.13;5.50;;;14.10;99.90;;;;;;5069999;28;20439;-61
2022/09/03 03:01:35;;;;;;;6.53;5.80;;;14.10;99.90;;;;;;5069179;28;20723;-61
2022/09/03 03:04:01;;;;;;;9.10;5.67;;;14.10;99.90;;;;;;5069809;28;20424;-61
2022/09/03 03:06:27;;;;;;;6.33;5.73;;;14.10;99.90;;;;;;5070241;28;20965;-60
2022/09/03 03:08:56;;;;;;;27.20;7.50;;;14.10;99.90;;;;;;5067257;28;20174;-60
2022/09/03 03:11:23;;;;;;;7.73;6.87;;;14.10;99.90;;;;;;5070016;28;20177;-60
2022/09/03 03:13:49;;;;;;;6.70;5.83;;;14.10;99.90;;;;;;5069694;28;20420;-61
2022/09/03 03:16:16;;;;;;;6.40;5.77;;;14.00;99.90;;;;;;5069965;28;20432;-60
2022/09/03 03:18:44;;;;;;;6.90;5.90;;;14.00;99.90;;;;;;5062434;28;20780;-60
2022/09/03 03:21:13;;;;;;;6.87;6.10;;;14.00;99.90;;;;;;5065448;28;20428;-61
2022/09/03 03:23:39;;;;;;;6.20;5.30;;;14.00;99.90;;;;;;5064557;28;20428;-61
2022/09/03 03:26:07;;;;;;;8.23;6.17;;;13.90;99.90;;;;;;5064878;28;20449;-60
2022/09/03 03:28:34;;;;;;;7.67;6.87;;;13.90;99.90;;;;;;5049471;28;20524;-61
2022/09/03 03:31:10;;;;;;;6.63;6.00;;;13.90;99.90;;;;;;5065151;28;20459;-60
2022/09/03 03:33:37;;;;;;;6.83;6.23;;;13.90;99.90;;;;;;5069316;28;20444;-61
2022/09/03 03:36:08;;;;;;;6.33;5.33;;;13.90;99.90;;;;;;5056576;28;20428;-61
2022/09/03 03:38:34;;;;;;;7.00;6.40;;;13.90;99.90;;;;;;5064802;28;20455;-60
2022/09/03 03:41:06;;;;;;;7.30;6.60;;;13.90;99.90;;;;;;5052622;28;20421;-61
2022/09/03 03:43:32;;;;;;;10.23;7.50;;;13.90;99.90;;;;;;5063853;28;20460;-60
2022/09/03 03:45:58;;;;;;;8.33;6.03;;;13.90;99.90;;;;;;5055518;28;20496;-61
2022/09/03 03:48:24;;;;;;;10.73;6.03;;;13.90;99.90;;;;;;5064713;28;20265;-61
2022/09/03 03:50:51;;;;;;;7.50;6.30;;;13.90;99.90;;;;;;5060203;28;20185;-60
2022/09/03 03:53:17;;;;;;;15.93;6.53;;;13.90;99.90;;;;;;5067324;28;20444;-60
2022/09/03 03:55:42;;;;;;;7.70;6.90;;;13.90;99.90;;;;;;5067449;28;20520;-61
2022/09/03 03:58:08;;;;;;;8.13;6.60;;;13.90;99.90;;;;;;5066004;28;20181;-61
2022/09/03 04:00:37;;;;;;;13.33;7.20;;;13.90;99.90;;;;;;5062528;28;20202;-60
2022/09/03 04:03:05;;;;;;;8.60;7.70;;;13.90;99.90;;;;;;5064792;28;20240;-61
2022/09/03 04:05:31;;;;;;;7.43;6.70;;;13.90;99.90;;;;;;5063395;28;20480;-61
2022/09/03 04:08:01;;;;;;;7.90;7.10;;;13.90;99.90;;;;;;5070355;28;20459;-61
2022/09/03 04:10:27;;;;;;;9.27;7.13;;;13.90;99.90;;;;;;5065794;28;20170;-60
2022/09/03 04:12:55;;;;;;;13.50;7.40;;;13.90;99.90;;;;;;5067155;28;20499;-60
2022/09/03 04:15:21;;;;;;;8.37;7.57;;;14.00;99.90;;;;;;5049057;28;20186;-60
2022/09/03 04:17:46;;;;;;;8.80;6.90;;;14.00;99.90;;;;;;5063630;28;20565;-60
2022/09/03 04:20:12;;;;;;;7.37;6.67;;;14.00;99.90;;;;;;5069174;28;20175;-60
2022/09/03 04:22:38;;;;;;;7.40;6.70;;;14.00;99.90;;;;;;5066831;28;20705;-60
2022/09/03 04:25:04;;;;;;;7.10;6.40;;;14.00;99.90;;;;;;5063164;28;20228;-60
2022/09/03 04:27:30;;;;;;;7.50;6.67;;;14.10;99.90;;;;;;5061877;28;20202;-60
2022/09/03 04:29:55;;;;;;;10.43;7.60;;;14.10;99.90;;;;;;5064071;28;20452;-61
2022/09/03 04:35:05;;;;;;;9.90;7.60;;;14.10;99.90;;;;;;5060014;28;20583;-61
2022/09/03 04:37:32;;;;;;;7.60;6.80;;;14.10;99.90;;;;;;5067317;28;20421;-60
2022/09/03 04:39:57;;;;;;;10.60;7.07;;;14.20;99.90;;;;;;5065849;28;20704;-61
2022/09/03 04:42:23;;;;;;;8.90;7.60;;;14.20;99.90;;;;;;5071694;28;20444;-61
2022/09/03 04:44:49;;;;;;;13.83;7.73;;;14.20;99.90;;;;;;5063284;28;20240;-61
2022/09/03 04:47:15;;;;;;;9.03;8.13;;;14.20;99.90;;;;;;5069033;28;20428;-61
2022/09/03 04:49:41;;;;;;;10.97;7.70;;;14.20;99.90;;;;;;5066137;28;20178;-62
2022/09/03 04:52:06;;;;;;;8.93;8.03;;;14.20;99.90;;;;;;5063998;28;20659;-61
2022/09/03 04:54:32;;;;;;;11.20;7.73;;;14.20;99.90;;;;;;5066118;28;20224;-61
2022/09/03 04:56:58;;;;;;;9.70;7.23;;;14.20;99.90;;;;;;5067986;28;20776;-61
2022/09/03 04:59:23;;;;;;;10.20;7.23;;;14.20;99.90;;;;;;5071918;28;20260;-64
2022/09/03 05:01:51;;;;;;;14.13;7.77;;;14.20;99.90;;;;;;5065545;28;20221;-61
2022/09/03 05:04:17;;;;;;;8.00;7.13;;;14.20;99.90;;;;;;5061286;28;20175;-61
2022/09/03 05:06:44;;;;;;;11.60;7.83;;;14.20;99.90;;;;;;5059369;28;20425;-61
2022/09/03 05:09:09;;;;;;;10.10;7.83;;;14.20;99.90;;;;;;5063611;28;20182;-61
2022/09/03 05:11:35;;;;;;;8.13;7.30;;;14.20;99.90;;;;;;5066494;28;20486;-61
2022/09/03 05:14:01;;;;;;;11.03;8.73;;;14.20;99.90;;;;;;5064445;28;20171;-61
2022/09/03 05:16:29;;;;;;;12.43;8.20;;;14.20;99.90;;;;;;5067441;28;20424;-61
2022/09/03 05:18:58;;;;;;;10.80;8.20;;;14.20;99.90;;;;;;5067133;28;20432;-61
2022/09/03 05:21:24;;;;;;;9.50;7.97;;;14.20;99.90;;;;;;5059317;28;20432;-60
2022/09/03 05:23:51;;;;;;;10.60;8.20;;;14.30;99.90;;;;;;5068280;28;20515;-61
2022/09/03 05:26:26;;;;;;;10.73;7.90;;;14.30;99.90;;;;;;5066969;28;20452;-60
2022/09/03 05:28:57;;;;;;;8.27;7.47;;;14.20;99.90;;;;;;5042740;28;20420;-60
2022/09/03 05:31:25;;;;;;;9.93;7.30;;;14.30;99.90;;;;;;5068548;28;20417;-60
2022/09/03 05:33:53;;;;;;;8.20;7.40;;;14.30;99.90;;;;;;5053403;28;20402;-60
2022/09/03 05:36:24;;;;;;;14.33;8.20;;;14.30;99.90;;;;;;5051958;28;20513;-60
2022/09/03 05:38:53;;;;;;;14.93;9.10;;;14.30;99.90;;;;;;5054964;28;20890;-60
2022/09/03 05:41:22;;;;;;;11.77;9.17;;;14.30;99.90;;;;;;5067282;28;20436;-60
2022/09/03 05:43:52;;;;;;;13.07;8.80;;;14.40;99.90;;;;;;5051393;28;20562;-60
2022/09/03 05:46:18;;;;;;;10.73;9.43;;;14.40;99.90;;;;;;5046908;28;20554;-60
2022/09/03 05:48:44;;;;;;;12.10;8.70;;;14.40;99.90;;;;;;5054326;28;21056;-60
2022/09/03 05:51:15;;;;;;;11.90;8.90;;;14.40;99.90;;;;;;5065151;28;20175;-60
2022/09/03 05:53:42;;;;;;;9.10;8.20;;;14.40;99.90;;;;;;5064603;28;20980;-60
2022/09/03 05:56:10;;;;;;;13.40;8.60;;;14.40;99.90;;;;;;5067758;28;20428;-61
2022/09/03 05:58:43;;;;;;;10.70;8.40;;;14.40;99.90;;;;;;5068908;28;20777;-60
2022/09/03 06:01:12;;;;;;;11.73;8.97;;;14.40;99.90;;;;;;5058525;28;20437;-60
2022/09/03 06:03:38;;;;;;;9.13;8.20;;;14.50;99.90;;;;;;5067838;28;20961;-60
2022/09/03 06:06:04;;;;;;;10.13;8.17;;;14.50;99.90;;;;;;5067210;28;20464;-60
2022/09/03 06:08:29;;;;;;;10.60;8.30;;;14.50;99.90;;;;;;5059886;28;21081;-60
2022/09/03 06:10:59;;;;;;;13.00;9.10;;;14.60;99.90;;;;;;5066653;28;20452;-60
2022/09/03 06:13:24;;;;;;;11.53;9.47;;;14.60;99.90;;;;;;5073276;28;20663;-61
2022/09/03 06:15:59;;;;;;;14.57;13.00;;;14.60;99.90;;;;;;5067570;28;20470;-61
2022/09/03 06:18:26;;;;;;;15.83;12.20;;;14.60;99.90;;;;;;5070043;28;20769;-61
2022/09/03 06:21:00;;;;;;;13.10;9.90;;;14.60;99.90;;;;;;5061143;28;20890;-60
2022/09/03 06:23:26;;;;;;;12.17;9.03;;;14.60;99.90;;;;;;5064301;28;20535;-61
2022/09/03 06:26:00;;;;;;;15.57;8.67;;;14.60;99.90;;;;;;5067093;28;20456;-61
2022/09/03 06:28:26;;;;;;;9.87;8.80;;;14.60;99.90;;;;;;5066790;28;20963;-61
2022/09/03 06:30:52;;;;;;;12.13;8.90;;;14.60;99.90;;;;;;5068086;28;20428;-60
2022/09/03 06:33:18;;;;;;;12.23;9.33;;;14.60;99.90;;;;;;5072110;28;20683;-60
2022/09/03 06:35:45;;;;;;;11.50;9.37;;;14.60;99.90;;;;;;5063136;28;20428;-60
2022/09/03 06:38:11;;;;;;;13.23;9.00;;;14.60;99.90;;;;;;5054196;28;20539;-60
2022/09/03 06:40:37;;;;;;;11.00;8.70;;;14.70;99.90;;;;;;5068009;28;20436;-60
2022/09/03 06:43:03;;;;;;;10.80;9.27;;;14.70;99.90;;;;;;5070438;28;20449;-60
2022/09/03 06:45:31;;;;;;;13.30;9.37;;;14.70;99.90;;;;;;5071090;28;20263;-60
2022/09/03 06:47:57;;;;;;;12.37;9.00;;;14.70;99.90;;;;;;5074290;28;20163;-60
2022/09/03 06:50:23;;;;;;;11.13;9.37;;;14.70;99.90;;;;;;5072519;28;20463;-61
2022/09/03 06:52:55;;;;;;;10.57;9.40;;;14.70;99.90;;;;;;5058114;28;20277;-61
2022/09/03 06:55:21;;;;;;;11.37;9.10;;;14.70;99.90;;;;;;5065910;28;20443;-61
2022/09/03 06:57:47;;;;;;;10.83;8.57;;;14.70;99.90;;;;;;5071658;28;21190;-60
2022/09/03 07:00:14;;;;;;;10.17;8.87;;;14.70;99.90;;;;;;5066924;28;20440;-61
2022/09/03 07:02:40;;;;;;;15.13;9.00;;;14.80;99.90;;;;;;5068233;28;20475;-61
2022/09/03 07:05:07;;;;;;;10.97;8.50;;;14.80;99.90;;;;;;5069425;28;20855;-60
2022/09/03 07:07:33;;;;;;;10.03;8.70;;;14.80;99.90;;;;;;5071317;28;20170;-61
2022/09/03 07:09:58;;;;;;;10.80;8.67;;;14.90;99.90;;;;;;5066123;28;20428;-60
2022/09/03 07:12:24;;;;;;;12.53;8.83;;;14.90;99.90;;;;;;5070214;28;20577;-60
2022/09/03 07:14:50;;;;;;;9.43;8.40;;;14.90;99.90;;;;;;5070927;28;20654;-60
2022/09/03 07:17:15;;;;;;;14.27;9.80;;;14.90;99.90;;;;;;5071803;28;20213;-61
2022/09/03 07:19:41;;;;;;;11.87;10.27;;;15.00;99.90;;;;;;5061472;28;20539;-60
2022/09/03 07:22:08;;;;;;;15.90;11.30;;;15.00;99.90;;;;;;5070283;28;20195;-61
2022/09/03 07:24:34;;;;;;;11.70;10.23;;;15.00;99.90;;;;;;5067221;28;20675;-61
2022/09/03 07:27:00;;;;;;;16.60;12.67;;;15.10;99.90;;;;;;5069499;28;20795;-61
2022/09/03 07:29:26;;;;;;;15.03;11.90;;;15.20;99.90;;;;;;5057133;28;20792;-61
2022/09/03 07:31:52;;;;;;;13.63;10.90;;;15.30;99.90;;;;;;5062887;28;20447;-59
2022/09/03 07:34:18;;;;;;;13.00;10.43;;;15.40;99.90;;;;;;5049209;28;20433;-61
2022/09/03 07:36:46;;;;;;;10.57;9.43;;;15.40;99.90;;;;;;5055858;28;20557;-60
2022/09/03 07:39:13;;;;;;;13.70;10.00;;;15.50;99.90;;;;;;5058532;28;20835;-57
2022/09/03 07:41:42;;;;;;;15.53;9.13;;;15.50;99.90;;;;;;5056981;28;23002;-57
2022/09/03 07:44:08;;;;;;;13.30;9.20;;;15.60;99.90;;;;;;5054265;28;20441;-57
2022/09/03 07:46:36;;;;;;;12.23;9.43;;;15.60;99.90;;;;;;5054537;28;20545;-58
2022/09/03 07:49:04;;;;;;;10.30;8.43;;;15.70;99.90;;;;;;5056776;28;20441;-58
2022/09/03 07:51:32;;;;;;;9.83;8.83;;;15.70;99.90;;;;;;5061765;28;20510;-58
2022/09/03 07:54:03;;;;;;;12.73;9.17;;;15.80;99.90;;;;;;5062290;28;20437;-57
2022/09/03 07:56:34;;;;;;;11.13;9.07;;;15.90;99.90;;;;;;5055755;28;20426;-58
2022/09/03 07:59:00;;;;;;;11.03;9.00;;;16.00;99.90;;;;;;5059669;28;20440;-58
2022/09/03 08:01:27;;;;;;;8.10;6.23;;;16.10;99.90;;;;;;5060528;28;20437;-59
2022/09/03 08:03:54;;;;;;;9.60;7.30;;;16.10;99.90;;;;;;5055855;28;21064;-59
2022/09/03 08:06:23;;;;;;;7.20;6.50;;;16.10;99.90;;;;;;5059481;28;20632;-58
2022/09/03 08:08:57;;;;;;;8.43;6.57;;;16.10;99.90;;;;;;5055996;28;20909;-60
2022/09/03 08:11:23;;;;;;;9.87;7.60;;;16.10;99.90;;;;;;5057247;28;20509;-60
2022/09/03 08:14:01;;;;;;;8.40;6.80;;;16.30;99.90;;;;;;5063867;28;20432;-59
2022/09/03 08:16:33;;;;;;;6.93;6.23;;;16.40;99.90;;;;;;5062993;28;20428;-61
2022/09/03 08:18:59;;;;;;;7.40;6.27;;;16.40;99.90;;;;;;5059736;28;20503;-61
2022/09/03 08:21:26;;;;;;;7.87;7.07;;;16.50;99.90;;;;;;5058602;28;20519;-61
2022/09/03 08:23:55;;;;;;;11.23;6.97;;;16.50;99.90;;;;;;5057706;28;20475;-61
2022/09/03 08:26:21;;;;;;;8.13;6.50;;;16.60;99.90;;;;;;5058163;28;20482;-62
2022/09/03 08:28:48;;;;;;;7.03;5.87;;;16.70;99.90;;;;;;5052876;28;20511;-62
2022/09/03 08:31:19;;;;;;;8.80;6.13;;;16.80;99.90;;;;;;5053956;28;20560;-61
2022/09/03 08:33:50;;;;;;;6.40;4.43;;;16.90;99.90;;;;;;5057930;28;20941;-60
2022/09/03 08:36:29;;;;;;;5.67;4.40;;;16.90;99.90;;;;;;5050425;28;20428;-61
2022/09/03 08:38:57;;;;;;;4.27;3.80;;;17.00;99.90;;;;;;5057341;28;20432;-61
2022/09/03 08:41:32;;;;;;;6.27;4.53;;;17.10;99.90;;;;;;5060044;28;20941;-61
2022/09/03 08:44:13;;;;;;;4.17;3.77;;;17.20;99.90;;;;;;5061081;28;20827;-60
2022/09/03 08:46:58;;;;;;;4.40;4.00;;;17.30;99.90;;;;;;5056517;28;20463;-61
2022/09/03 08:49:47;;;;;;;4.47;3.60;;;17.50;99.90;;;;;;5062069;28;20558;-63
2022/09/03 08:52:33;;;;;;;8.73;4.10;;;17.60;99.90;;;;;;5061396;28;21041;-61
2022/09/03 08:55:23;;;;;;;3.90;3.60;;;17.60;99.90;;;;;;5061783;28;20417;-61
2022/09/03 08:57:56;;;;;;;4.80;4.40;;;17.70;99.90;;;;;;5055367;28;20435;-61
2022/09/03 09:00:21;;;;;;;3.73;3.43;;;17.80;99.90;;;;;;5058927;28;20432;-64
2022/09/03 09:03:08;;;;;;;6.33;3.50;;;17.90;99.90;;;;;;5046820;28;21224;-60
2022/09/03 09:05:57;;;;;;;3.47;3.17;;;18.00;99.90;;;;;;5061705;28;20198;-61
2022/09/03 09:08:22;;;;;;;4.57;3.07;;;18.20;99.90;;;;;;5048468;28;20421;-62
2022/09/03 09:11:17;;;;;;;6.20;3.13;;;18.30;99.90;;;;;;5050869;28;20490;-61
2022/09/03 09:14:03;;;;;;;5.10;3.47;;;18.40;99.90;;;;;;5045799;28;20185;-61
2022/09/03 09:16:41;;;;;;;4.00;3.57;;;18.50;99.90;;;;;;5051992;28;20853;-61
2022/09/03 09:19:11;;;;;;;4.03;3.10;;;18.60;99.90;;;;;;5056011;28;20482;-62
2022/09/03 09:22:02;;;;;;;3.80;3.00;;;18.70;99.90;;;;;;5053761;28;20477;-63
2022/09/03 09:24:42;;;;;;;5.33;4.00;;;18.80;99.90;;;;;;5051859;28;20439;-61
2022/09/03 09:27:08;;;;;;;5.80;3.73;;;19.00;99.90;;;;;;5051817;28;20435;-62
2022/09/03 09:29:38;;;;;;;5.83;3.50;;;19.20;99.90;;;;;;5050684;28;20803;-63
2022/09/03 09:32:07;;;;;;;4.00;3.10;;;19.30;99.90;;;;;;5049755;28;20455;-61
2022/09/03 09:34:37;;;;;;;5.03;3.60;;;19.40;99.90;;;;;;5049962;28;20763;-62
2022/09/03 09:37:14;;;;;;;3.27;2.87;;;19.60;99.90;;;;;;5028142;28;20425;-62
2022/09/03 09:39:52;;;;;;;3.40;3.00;;;19.70;99.90;;;;;;5056610;28;20478;-61
2022/09/03 09:42:21;;;;;;;3.53;3.20;;;20.00;99.90;;;;;;5058273;28;20449;-61
2022/09/03 09:44:47;;;;;;;3.10;2.80;;;20.20;99.90;;;;;;5059462;28;20482;-61
2022/09/03 09:47:26;;;;;;;2.87;2.67;;;20.20;99.90;;;;;;5060741;28;20432;-62
2022/09/03 09:49:57;;;;;;;2.63;2.43;;;20.20;99.90;;;;;;5056749;28;20174;-61
2022/09/03 09:52:27;;;;;;;4.07;3.20;;;20.10;99.90;;;;;;5050084;28;20440;-63
2022/09/03 09:55:08;;;;;;;4.43;3.00;;;20.00;99.90;;;;;;5055795;28;20807;-62
2022/09/03 09:57:36;;;;;;;3.90;2.60;;;20.00;99.90;;;;;;5067151;28;20511;-61
2022/09/03 10:00:13;;;;;;;2.37;2.23;;;19.90;99.90;;;;;;5066397;28;20798;-63
2022/09/03 10:02:47;;;;;;;2.90;2.67;;;19.80;99.90;;;;;;5060827;28;20472;-63
2022/09/03 10:05:18;;;;;;;5.30;2.90;;;19.70;99.90;;;;;;5065451;28;20455;-62
2022/09/03 10:07:58;;;;;;;4.87;3.20;;;19.60;99.90;;;;;;5065459;28;21109;-61
2022/09/03 10:10:25;;;;;;;3.20;2.90;;;19.50;99.90;;;;;;5062193;28;20478;-62
2022/09/03 10:13:12;;;;;;;4.20;2.70;;;19.40;99.90;;;;;;5041353;28;20459;-61
2022/09/03 10:15:46;;;;;;;3.10;2.83;;;19.30;99.90;;;;;;5064161;28;20436;-62
2022/09/03 10:18:30;;;;;;;2.90;2.53;;;19.10;99.90;;;;;;5065674;28;21000;-61
2022/09/03 10:21:14;;;;;;;3.50;2.70;;;19.00;99.90;;;;;;5040879;28;20957;-61
2022/09/03 10:24:18;;;;;;;4.20;3.20;;;19.00;99.90;;;;;;5066143;28;20508;-62
2022/09/03 10:26:45;;;;;;;3.63;3.27;;;18.90;99.90;;;;;;5013881;28;20468;-61
2022/09/03 10:29:16;;;;;;;3.37;3.07;;;18.70;99.90;;;;;;5056232;28;20433;-61
2022/09/03 10:32:11;;;;;;;3.90;3.10;;;18.60;99.90;;;;;;5067249;28;20556;-61
2022/09/03 10:34:36;;;;;;;7.37;4.97;;;18.50;99.90;;;;;;4991161;28;20432;-61
2022/09/03 10:37:20;;;;;;;12.57;4.57;;;18.40;99.90;;;;;;5064452;28;20837;-61
2022/09/03 10:40:17;;;;;;;5.50;2.70;;;18.30;99.90;;;;;;5064763;28;20186;-61
2022/09/03 10:42:55;;;;;;;9.30;3.00;;;18.10;99.90;;;;;;5067918;28;20987;-62
2022/09/03 10:45:30;;;;;;;9.97;3.13;;;17.70;99.90;;;;;;5065878;28;20486;-62
2022/09/03 10:48:04;;;;;;;7.90;4.23;;;17.40;99.90;;;;;;5066210;28;20427;-61
2022/09/03 10:50:41;;;;;;;4.77;2.30;;;17.30;99.90;;;;;;5065588;28;20428;-61
2022/09/03 10:53:10;;;;;;;6.43;2.73;;;17.10;99.90;;;;;;5065515;28;20452;-62
2022/09/03 10:55:41;;;;;;;5.37;2.50;;;17.00;99.90;;;;;;5043769;28;20436;-61
2022/09/03 10:58:30;;;;;;;7.40;2.67;;;16.90;99.90;;;;;;5065279;28;20611;-61
2022/09/03 11:01:08;;;;;;;7.63;2.80;;;16.90;99.90;;;;;;5052700;28;20425;-61
2022/09/03 11:03:43;;;;;;;3.50;3.03;;;17.00;99.90;;;;;;5069026;28;20460;-61
2022/09/03 11:06:18;;;;;;;4.80;3.07;;;17.10;99.90;;;;;;5061523;28;20460;-61
2022/09/03 11:09:11;;;;;;;5.17;2.90;;;17.30;99.90;;;;;;5070407;28;20432;-61
2022/09/03 11:11:46;;;;;;;3.87;3.37;;;17.50;99.90;;;;;;5067666;28;20483;-60
2022/09/03 11:14:19;;;;;;;2.70;2.50;;;17.50;99.90;;;;;;5083057;28;20477;-61
2022/09/03 11:16:54;;;;;;;3.83;2.77;;;17.60;99.90;;;;;;5067362;28;20429;-61
2022/09/03 11:19:32;;;;;;;4.80;3.10;;;17.70;99.90;;;;;;5055376;28;20436;-62
2022/09/03 11:21:58;;;;;;;2.90;2.53;;;17.80;99.90;;;;;;5069841;28;20493;-61
2022/09/03 11:24:27;;;;;;;4.10;2.60;;;18.00;99.90;;;;;;5070734;28;20433;-61
2022/09/03 11:27:10;;;;;;;3.20;2.47;;;18.10;99.90;;;;;;5070633;28;20198;-61
2022/09/03 11:29:52;;;;;;;8.67;3.10;;;18.20;99.90;;;;;;5067378;28;20432;-61
2022/09/03 11:32:24;;;;;;;4.37;2.80;;;18.20;99.90;;;;;;5069845;28;20981;-61
2022/09/03 11:34:54;;;;;;;2.27;2.13;;;18.30;99.90;;;;;;5062662;28;20515;-61
2022/09/03 11:37:27;;;;;;;3.77;2.13;;;18.30;99.90;;;;;;5070250;28;20404;-61
2022/09/03 11:40:06;;;;;;;3.20;2.73;;;18.30;99.90;;;;;;5067704;28;20440;-62
2022/09/03 11:42:40;;;;;;;8.50;2.63;;;18.30;99.90;;;;;;5063760;28;20440;-61
2022/09/03 11:45:36;;;;;;;4.10;2.60;;;18.40;99.90;;;;;;5063773;28;20464;-61
2022/09/03 11:48:17;;;;;;;4.40;2.93;;;18.60;99.90;;;;;;5064087;28;20965;-60
2022/09/03 11:50:52;;;;;;;6.30;4.40;;;18.60;99.90;;;;;;5065885;28;20929;-61
2022/09/03 11:53:17;;;;;;;2.43;1.70;;;18.70;99.90;;;;;;5064530;28;20460;-61
2022/09/03 11:56:00;;;;;;;1.73;1.63;;;19.00;99.90;;;;;;5062530;28;20437;-61
2022/09/03 11:58:41;;;;;;;1.97;1.77;;;19.20;99.90;;;;;;5067773;28;20201;-60
2022/09/03 12:01:13;;;;;;;1.90;1.30;;;19.20;99.90;;;;;;5061668;28;20432;-61
2022/09/03 12:03:57;;;;;;;2.67;1.43;;;19.10;99.90;;;;;;5069976;28;20432;-62
2022/09/03 12:06:42;;;;;;;1.50;1.40;;;18.80;99.90;;;;;;5068271;28;20897;-62
2022/09/03 12:09:38;;;;;;;2.37;1.40;;;18.70;99.90;;;;;;5066465;28;20432;-61
2022/09/03 12:12:26;;;;;;;1.50;1.40;;;18.50;99.90;;;;;;5067485;28;20524;-62
2022/09/03 12:15:17;;;;;;;1.40;1.23;;;18.30;99.90;;;;;;5062695;28;20929;-61
2022/09/03 12:18:18;;;;;;;3.40;1.60;;;18.10;99.90;;;;;;5069521;28;20419;-61
2022/09/03 12:20:45;;;;;;;1.30;1.20;;;18.10;99.90;;;;;;5068933;28;20967;-61
2022/09/03 12:23:13;;;;;;;1.90;1.00;;;18.10;99.90;;;;;;5076199;28;20429;-62
2022/09/03 12:25:46;;;;;;;1.00;1.00;;;18.30;99.90;;;;;;5067825;28;20456;-61
2022/09/03 12:28:18;;;;;;;1.40;1.03;;;18.50;99.90;;;;;;5065859;28;20434;-62
2022/09/03 12:30:45;;;;;;;1.20;1.10;;;18.90;99.90;;;;;;5061434;28;20440;-61
2022/09/03 12:33:16;;;;;;;1.17;0.90;;;19.30;99.90;;;;;;5068546;28;21126;-61
2022/09/03 12:35:42;;;;;;;0.90;0.90;;;19.50;99.90;;;;;;5062128;28;20865;-61
2022/09/03 12:38:11;;;;;;;0.80;0.80;;;19.60;99.90;;;;;;5067019;28;20469;-61
2022/09/03 12:40:42;;;;;;;2.80;1.10;;;19.50;99.90;;;;;;5066454;28;20428;-62
2022/09/03 12:43:15;;;;;;;1.10;1.00;;;19.40;99.90;;;;;;5068907;28;20428;-61
2022/09/03 12:45:44;;;;;;;1.77;1.40;;;19.30;99.90;;;;;;5050320;28;20551;-61
2022/09/03 12:48:17;;;;;;;1.20;1.10;;;19.20;99.90;;;;;;5064655;28;20436;-61
2022/09/03 12:50:44;;;;;;;0.80;0.80;;;19.40;99.90;;;;;;5065321;28;20437;-61
2022/09/03 12:53:21;;;;;;;1.13;1.03;;;19.50;99.90;;;;;;5063899;28;20462;-61
2022/09/03 12:55:53;;;;;;;0.90;0.90;;;19.60;99.90;;;;;;5068406;28;20481;-61
2022/09/03 12:58:37;;;;;;;0.90;0.90;;;19.60;99.40;;;;;;5064172;28;20443;-61
2022/09/03 13:01:08;;;;;;;1.00;0.90;;;19.80;99.90;;;;;;5066643;28;20882;-61
2022/09/03 13:04:09;;;;;;;0.93;0.93;;;20.20;99.90;;;;;;5046264;28;20516;-61
2022/09/03 13:06:48;;;;;;;1.40;1.23;;;20.40;99.90;;;;;;5020096;28;20468;-60
2022/09/03 13:09:15;;;;;;;1.30;1.20;;;20.50;99.90;;;;;;5065060;28;20441;-61
2022/09/03 13:11:43;;;;;;;1.10;1.00;;;20.60;99.90;;;;;;5070109;28;20456;-61
2022/09/03 13:14:12;;;;;;;1.23;1.13;;;20.90;99.90;;;;;;5069380;28;20424;-62